createdAt,value
2023-04-18T00:00:02.652Z,373.00
2023-04-18T00:01:02.615Z,373.00
2023-04-18T00:02:02.696Z,372.00
2023-04-18T00:03:04.703Z,374.00
2023-04-18T00:04:02.920Z,375.00
2023-04-18T00:05:02.727Z,376.00
2023-04-18T00:06:02.675Z,376.00
2023-04-18T00:07:02.702Z,378.00
2023-04-18T00:08:02.652Z,378.00
2023-04-18T00:09:02.713Z,377.00
2023-04-18T00:10:02.682Z,376.00
2023-04-18T00:11:02.682Z,374.00
2023-04-18T00:12:02.782Z,375.00
2023-04-18T00:13:02.738Z,375.00
2023-04-18T00:14:02.710Z,376.00
2023-04-18T00:15:02.766Z,376.00
2023-04-18T00:16:02.710Z,376.00
2023-04-18T00:17:02.907Z,375.00
2023-04-18T00:18:02.769Z,375.00
2023-04-18T00:19:02.784Z,375.00
2023-04-18T00:20:02.811Z,374.00
2023-04-18T00:21:02.753Z,374.00
2023-04-18T00:22:02.791Z,374.00
2023-04-18T00:23:02.797Z,372.00
2023-04-18T00:24:02.783Z,373.00
2023-04-18T00:25:02.819Z,371.00
2023-04-18T00:26:02.795Z,371.00
2023-04-18T00:27:02.798Z,371.00
2023-04-18T00:28:02.835Z,371.00
2023-04-18T00:29:02.873Z,371.00
2023-04-18T00:30:02.855Z,370.00
2023-04-18T00:31:02.912Z,370.00
2023-04-18T00:32:02.988Z,370.00
2023-04-18T00:33:02.850Z,371.00
2023-04-18T00:34:02.853Z,373.00
2023-04-18T00:35:02.879Z,373.00
2023-04-18T00:36:02.958Z,372.00
2023-04-18T00:37:02.903Z,370.00
2023-04-18T00:38:02.905Z,368.00
2023-04-18T00:39:02.870Z,368.00
2023-04-18T00:40:02.903Z,368.00
2023-04-18T00:41:02.885Z,366.00
2023-04-18T00:42:02.938Z,365.00
2023-04-18T00:43:02.909Z,365.00
2023-04-18T00:44:02.903Z,367.00
2023-04-18T00:45:02.931Z,366.00
2023-04-18T00:46:02.996Z,368.00
2023-04-18T00:47:02.920Z,369.00
2023-04-18T00:48:02.964Z,369.00
2023-04-18T00:49:02.926Z,370.00
2023-04-18T00:50:02.956Z,371.00
2023-04-18T00:51:02.973Z,372.00
2023-04-18T00:52:02.983Z,369.00
2023-04-18T00:53:02.958Z,370.00
2023-04-18T00:54:02.982Z,368.00
2023-04-18T00:55:02.990Z,368.00
2023-04-18T00:56:03.041Z,370.00
2023-04-18T00:57:03.003Z,370.00
2023-04-18T00:58:03.022Z,370.00
2023-04-18T00:59:03.041Z,369.00
2023-04-18T01:00:03.067Z,365.00
2023-04-18T01:01:03.052Z,365.00
2023-04-18T01:02:03.052Z,365.00
2023-04-18T01:03:03.326Z,368.00
2023-04-18T01:04:03.083Z,368.00
2023-04-18T01:05:03.136Z,367.00
2023-04-18T01:06:03.094Z,367.00
2023-04-18T01:07:03.067Z,369.00
2023-04-18T01:08:03.105Z,369.00
2023-04-18T01:09:03.151Z,369.00
2023-04-18T01:10:03.128Z,371.00
2023-04-18T01:11:03.173Z,371.00
2023-04-18T01:12:03.133Z,370.00
2023-04-18T01:13:03.149Z,369.00
2023-04-18T01:14:03.207Z,370.00
2023-04-18T01:15:03.179Z,372.00
2023-04-18T01:16:03.206Z,374.00
2023-04-18T01:17:03.182Z,374.00
2023-04-18T01:18:03.274Z,372.00
2023-04-18T01:19:03.203Z,371.00
2023-04-18T01:20:03.220Z,371.00
2023-04-18T01:21:03.209Z,371.00
2023-04-18T01:22:03.229Z,371.00
2023-04-18T01:23:03.242Z,372.00
2023-04-18T01:24:03.247Z,372.00
2023-04-18T01:25:03.247Z,371.00
2023-04-18T01:26:03.266Z,372.00
2023-04-18T01:27:03.342Z,371.00
2023-04-18T01:28:03.300Z,370.00
2023-04-18T01:29:03.298Z,367.00
2023-04-18T01:30:03.283Z,367.00
2023-04-18T01:31:03.346Z,368.00
2023-04-18T01:32:03.321Z,368.00
2023-04-18T01:33:03.336Z,367.00
2023-04-18T01:34:03.349Z,367.00
2023-04-18T01:35:03.326Z,365.00
2023-04-18T01:36:03.374Z,366.00
2023-04-18T01:37:03.361Z,366.00
2023-04-18T01:38:03.372Z,366.00
2023-04-18T01:39:03.526Z,365.00
2023-04-18T01:40:03.393Z,365.00
2023-04-18T01:41:03.394Z,366.00
2023-04-18T01:42:03.446Z,367.00
2023-04-18T01:43:03.432Z,368.00
2023-04-18T01:44:03.404Z,368.00
2023-04-18T01:45:03.452Z,366.00
2023-04-18T01:46:03.440Z,366.00
2023-04-18T01:47:03.521Z,367.00
2023-04-18T01:48:03.488Z,366.00
2023-04-18T01:49:03.525Z,366.00
2023-04-18T01:50:03.490Z,364.00
2023-04-18T01:51:03.521Z,364.00
2023-04-18T01:52:03.541Z,362.00
2023-04-18T01:53:03.509Z,361.00
2023-04-18T01:54:03.556Z,361.00
2023-04-18T01:55:03.528Z,361.00
2023-04-18T01:56:03.595Z,361.00
2023-04-18T01:57:03.598Z,360.00
2023-04-18T01:58:03.648Z,361.00
2023-04-18T01:59:03.602Z,360.00
2023-04-18T02:00:03.589Z,361.00
2023-04-18T02:01:03.663Z,360.00
2023-04-18T02:02:03.818Z,361.00
2023-04-18T02:03:03.738Z,360.00
2023-04-18T02:04:03.740Z,360.00
2023-04-18T02:05:03.691Z,361.00
2023-04-18T02:06:03.685Z,360.00
2023-04-18T02:07:03.719Z,359.00
2023-04-18T02:08:03.714Z,358.00
2023-04-18T02:09:03.731Z,358.00
2023-04-18T02:10:03.730Z,360.00
2023-04-18T02:11:03.786Z,363.00
2023-04-18T02:12:03.826Z,362.00
2023-04-18T02:13:03.812Z,363.00
2023-04-18T02:14:03.838Z,363.00
2023-04-18T02:15:03.838Z,364.00
2023-04-18T02:16:03.870Z,363.00
2023-04-18T02:17:03.846Z,362.00
2023-04-18T02:18:03.890Z,363.00
2023-04-18T02:19:03.907Z,362.00
2023-04-18T02:20:03.906Z,362.00
2023-04-18T02:21:03.913Z,360.00
2023-04-18T02:22:03.937Z,360.00
2023-04-18T02:23:03.931Z,358.00
2023-04-18T02:24:03.979Z,356.00
2023-04-18T02:25:03.970Z,355.00
2023-04-18T02:26:03.962Z,356.00
2023-04-18T02:27:04.015Z,358.00
2023-04-18T02:28:04.034Z,357.00
2023-04-18T02:29:04.001Z,354.00
2023-04-18T02:30:04.073Z,354.00
2023-04-18T02:31:04.063Z,355.00
2023-04-18T02:32:04.184Z,354.00
2023-04-18T02:33:04.125Z,352.00
2023-04-18T02:34:04.131Z,352.00
2023-04-18T02:35:04.108Z,350.00
2023-04-18T02:36:04.218Z,351.00
2023-04-18T02:37:04.222Z,352.00
2023-04-18T02:38:04.176Z,353.00
2023-04-18T02:39:04.209Z,354.00
2023-04-18T02:40:04.197Z,354.00
2023-04-18T02:41:04.209Z,356.00
2023-04-18T02:42:04.253Z,357.00
2023-04-18T02:43:04.262Z,357.00
2023-04-18T02:44:04.281Z,358.00
2023-04-18T02:45:04.309Z,361.00
2023-04-18T02:46:04.342Z,361.00
2023-04-18T02:47:04.321Z,360.00
2023-04-18T02:48:04.340Z,360.00
2023-04-18T02:49:04.364Z,360.00
2023-04-18T02:50:04.350Z,360.00
2023-04-18T02:51:04.392Z,360.00
2023-04-18T02:52:04.399Z,360.00
2023-04-18T02:53:04.399Z,362.00
2023-04-18T02:54:04.415Z,363.00
2023-04-18T02:55:04.414Z,364.00
2023-04-18T02:56:04.461Z,365.00
2023-04-18T02:57:04.467Z,363.00
2023-04-18T02:58:04.470Z,363.00
2023-04-18T02:59:04.461Z,363.00
2023-04-18T03:00:04.612Z,363.00
2023-04-18T03:01:04.590Z,362.00
2023-04-18T03:02:04.601Z,363.00
2023-04-18T03:03:04.621Z,359.00
2023-04-18T03:04:04.552Z,361.00
2023-04-18T03:05:04.671Z,360.00
2023-04-18T03:06:04.604Z,360.00
2023-04-18T03:07:04.583Z,361.00
2023-04-18T03:08:04.619Z,363.00
2023-04-18T03:09:04.669Z,364.00
2023-04-18T03:10:04.620Z,363.00
2023-04-18T03:11:04.656Z,362.00
2023-04-18T03:12:04.623Z,362.00
2023-04-18T03:13:04.714Z,363.00
2023-04-18T03:14:04.675Z,362.00
2023-04-18T03:15:04.684Z,360.00
2023-04-18T03:16:04.788Z,362.00
2023-04-18T03:17:04.686Z,360.00
2023-04-18T03:18:04.810Z,359.00
2023-04-18T03:19:04.743Z,359.00
2023-04-18T03:20:04.753Z,359.00
2023-04-18T03:21:04.761Z,359.00
2023-04-18T03:22:04.805Z,360.00
2023-04-18T03:23:04.913Z,359.00
2023-04-18T03:24:04.791Z,359.00
2023-04-18T03:25:04.791Z,359.00
2023-04-18T03:26:04.787Z,359.00
2023-04-18T03:27:04.829Z,361.00
2023-04-18T03:28:04.843Z,360.00
2023-04-18T03:29:04.848Z,358.00
2023-04-18T03:30:04.852Z,360.00
2023-04-18T03:31:04.912Z,362.00
2023-04-18T03:32:04.931Z,364.00
2023-04-18T03:33:04.917Z,362.00
2023-04-18T03:34:04.908Z,361.00
2023-04-18T03:35:04.924Z,360.00
2023-04-18T03:36:04.918Z,358.00
2023-04-18T03:37:04.971Z,359.00
2023-04-18T03:38:04.964Z,359.00
2023-04-18T03:39:04.986Z,359.00
2023-04-18T03:40:04.992Z,358.00
2023-04-18T03:41:05.006Z,359.00
2023-04-18T03:42:05.037Z,360.00
2023-04-18T03:43:05.124Z,360.00
2023-04-18T03:44:05.057Z,361.00
2023-04-18T03:45:05.064Z,360.00
2023-04-18T03:46:05.147Z,358.00
2023-04-18T03:47:05.138Z,360.00
2023-04-18T03:48:05.181Z,362.00
2023-04-18T03:49:05.149Z,362.00
2023-04-18T03:50:05.163Z,362.00
2023-04-18T03:51:05.178Z,364.00
2023-04-18T03:52:05.172Z,364.00
2023-04-18T03:53:05.241Z,365.00
2023-04-18T03:54:05.222Z,365.00
2023-04-18T03:55:05.252Z,362.00
2023-04-18T03:56:05.273Z,361.00
2023-04-18T03:57:05.307Z,361.00
2023-04-18T03:58:05.319Z,362.00
2023-04-18T03:59:05.349Z,366.00
2023-04-18T04:00:05.315Z,363.00
2023-04-18T04:01:05.329Z,362.00
2023-04-18T04:02:05.456Z,361.00
2023-04-18T04:03:05.581Z,360.00
2023-04-18T04:04:05.488Z,359.00
2023-04-18T04:05:05.514Z,357.00
2023-04-18T04:06:05.452Z,357.00
2023-04-18T04:07:05.480Z,358.00
2023-04-18T04:08:05.449Z,359.00
2023-04-18T04:09:05.492Z,360.00
2023-04-18T04:10:05.472Z,363.00
2023-04-18T04:11:05.470Z,362.00
2023-04-18T04:12:05.522Z,362.00
2023-04-18T04:13:05.516Z,365.00
2023-04-18T04:14:05.536Z,367.00
2023-04-18T04:15:05.533Z,364.00
2023-04-18T04:16:05.599Z,363.00
2023-04-18T04:17:05.552Z,362.00
2023-04-18T04:18:05.648Z,364.00
2023-04-18T04:19:05.599Z,364.00
2023-04-18T04:20:05.602Z,363.00
2023-04-18T04:21:05.610Z,363.00
2023-04-18T04:22:05.669Z,363.00
2023-04-18T04:23:05.661Z,363.00
2023-04-18T04:24:05.632Z,363.00
2023-04-18T04:25:05.666Z,365.00
2023-04-18T04:26:05.672Z,367.00
2023-04-18T04:27:05.688Z,365.00
2023-04-18T04:28:05.724Z,367.00
2023-04-18T04:29:05.689Z,367.00
2023-04-18T04:30:05.702Z,369.00
2023-04-18T04:31:05.709Z,370.00
2023-04-18T04:32:05.832Z,371.00
2023-04-18T04:33:05.776Z,371.00
2023-04-18T04:34:05.769Z,373.00
2023-04-18T04:35:05.827Z,375.00
2023-04-18T04:36:05.809Z,374.00
2023-04-18T04:37:05.838Z,375.00
2023-04-18T04:38:05.866Z,372.00
2023-04-18T04:39:05.844Z,370.00
2023-04-18T04:40:05.879Z,375.00
2023-04-18T04:41:05.844Z,375.00
2023-04-18T04:42:05.886Z,376.00
2023-04-18T04:43:05.934Z,376.00
2023-04-18T04:44:06.003Z,377.00
2023-04-18T04:45:06.016Z,376.00
2023-04-18T04:46:05.975Z,377.00
2023-04-18T04:47:05.946Z,376.00
2023-04-18T04:48:06.066Z,377.00
2023-04-18T04:49:05.965Z,377.00
2023-04-18T04:50:06.047Z,375.00
2023-04-18T04:51:06.044Z,376.00
2023-04-18T04:52:06.047Z,373.00
2023-04-18T04:53:06.057Z,375.00
2023-04-18T04:54:06.105Z,374.00
2023-04-18T04:55:06.134Z,373.00
2023-04-18T04:56:06.171Z,372.00
2023-04-18T04:57:06.186Z,374.00
2023-04-18T04:58:06.182Z,375.00
2023-04-18T04:59:06.241Z,374.00
2023-04-18T05:00:06.205Z,375.00
2023-04-18T05:01:06.354Z,376.00
2023-04-18T05:02:06.352Z,374.00
2023-04-18T05:03:06.327Z,374.00
2023-04-18T05:04:06.403Z,375.00
2023-04-18T05:05:06.329Z,374.00
2023-04-18T05:06:06.373Z,372.00
2023-04-18T05:07:06.396Z,373.00
2023-04-18T05:08:06.418Z,372.00
2023-04-18T05:09:06.434Z,373.00
2023-04-18T05:10:06.443Z,372.00
2023-04-18T05:11:06.483Z,371.00
2023-04-18T05:12:06.502Z,371.00
2023-04-18T05:13:06.496Z,373.00
2023-04-18T05:14:06.548Z,373.00
2023-04-18T05:15:06.588Z,371.00
2023-04-18T05:16:06.617Z,371.00
2023-04-18T05:17:06.688Z,370.00
2023-04-18T05:18:06.720Z,370.00
2023-04-18T05:19:06.688Z,368.00
2023-04-18T05:20:06.685Z,368.00
2023-04-18T05:21:06.731Z,366.00
2023-04-18T05:22:06.770Z,365.00
2023-04-18T05:23:06.824Z,364.00
2023-04-18T05:24:06.827Z,366.00
2023-04-18T05:25:06.834Z,370.00
2023-04-18T05:26:06.878Z,371.00
2023-04-18T05:27:06.899Z,372.00
2023-04-18T05:28:06.960Z,371.00
2023-04-18T05:29:06.921Z,373.00
2023-04-18T05:30:06.988Z,375.00
2023-04-18T05:31:07.073Z,374.00
2023-04-18T05:32:07.041Z,375.00
2023-04-18T05:33:07.109Z,376.00
2023-04-18T05:34:07.115Z,377.00
2023-04-18T05:35:07.122Z,377.00
2023-04-18T05:36:07.158Z,377.00
2023-04-18T05:37:07.224Z,387.00
2023-04-18T05:38:07.179Z,392.00
2023-04-18T05:39:07.266Z,401.00
2023-04-18T05:40:07.374Z,421.00
2023-04-18T05:41:07.276Z,435.00
2023-04-18T05:42:07.322Z,446.00
2023-04-18T05:43:07.370Z,454.00
2023-04-18T05:44:07.558Z,463.00
2023-04-18T05:45:07.399Z,547.00
2023-04-18T05:46:07.418Z,554.00
2023-04-18T05:47:07.428Z,567.00
2023-04-18T05:48:07.462Z,571.00
2023-04-18T05:49:07.434Z,578.00
2023-04-18T05:50:07.433Z,597.00
2023-04-18T05:51:07.797Z,626.00
2023-04-18T05:52:07.453Z,635.00
2023-04-18T05:53:07.497Z,631.00
2023-04-18T05:54:07.457Z,621.00
2023-04-18T05:55:07.494Z,608.00
2023-04-18T05:56:07.504Z,601.00
2023-04-18T05:57:07.520Z,593.00
2023-04-18T05:58:07.513Z,585.00
2023-04-18T05:59:07.527Z,580.00
2023-04-18T06:00:07.526Z,576.00
2023-04-18T06:01:07.511Z,572.00
2023-04-18T06:02:07.563Z,567.00
2023-04-18T06:03:09.969Z,570.00
2023-04-18T06:04:07.663Z,570.00
2023-04-18T06:05:07.775Z,567.00
2023-04-18T06:06:07.504Z,567.00
2023-04-18T06:07:07.491Z,563.00
2023-04-18T06:08:07.472Z,562.00
2023-04-18T06:09:07.487Z,560.00
2023-04-18T06:10:07.455Z,559.00
2023-04-18T06:11:07.501Z,558.00
2023-04-18T06:12:07.506Z,557.00
2023-04-18T06:13:07.478Z,557.00
2023-04-18T06:14:07.461Z,555.00
2023-04-18T06:15:07.458Z,553.00
2023-04-18T06:16:07.496Z,553.00
2023-04-18T06:17:07.443Z,549.00
2023-04-18T06:18:07.476Z,548.00
2023-04-18T06:19:07.472Z,548.00
2023-04-18T06:20:07.415Z,546.00
2023-04-18T06:21:07.415Z,543.00
2023-04-18T06:22:07.424Z,541.00
2023-04-18T06:23:07.398Z,537.00
2023-04-18T06:24:07.385Z,535.00
2023-04-18T06:25:07.384Z,533.00
2023-04-18T06:26:07.426Z,530.00
2023-04-18T06:27:09.358Z,523.00
2023-04-18T06:28:08.336Z,520.00
2023-04-18T06:29:07.368Z,515.00
2023-04-18T06:30:07.320Z,512.00
2023-04-18T06:31:07.579Z,508.00
2023-04-18T06:32:07.332Z,505.00
2023-04-18T06:33:07.628Z,505.00
2023-04-18T06:34:07.353Z,505.00
2023-04-18T06:35:07.558Z,504.00
2023-04-18T06:36:07.323Z,502.00
2023-04-18T06:37:07.275Z,501.00
2023-04-18T06:38:07.269Z,499.00
2023-04-18T06:39:07.289Z,494.00
2023-04-18T06:40:07.297Z,489.00
2023-04-18T06:41:07.557Z,486.00
2023-04-18T06:42:07.263Z,483.00
2023-04-18T06:43:07.246Z,481.00
2023-04-18T06:44:07.374Z,479.00
2023-04-18T06:45:07.263Z,476.00
2023-04-18T06:46:07.303Z,474.00
2023-04-18T06:47:07.228Z,472.00
2023-04-18T06:48:07.342Z,468.00
2023-04-18T06:49:07.202Z,463.00
2023-04-18T06:50:07.198Z,459.00
2023-04-18T06:51:07.158Z,456.00
2023-04-18T06:52:07.181Z,452.00
2023-04-18T06:53:07.172Z,449.00
2023-04-18T06:54:07.212Z,446.00
2023-04-18T06:55:07.153Z,447.00
2023-04-18T06:56:07.162Z,445.00
2023-04-18T06:57:08.162Z,440.00
2023-04-18T06:58:07.163Z,439.00
2023-04-18T06:59:07.175Z,438.00
2023-04-18T07:00:07.300Z,436.00
2023-04-18T07:01:07.164Z,434.00
2023-04-18T07:02:07.182Z,430.00
2023-04-18T07:03:09.424Z,430.00
2023-04-18T07:04:07.153Z,428.00
2023-04-18T07:05:07.099Z,429.00
2023-04-18T07:06:07.110Z,429.00
2023-04-18T07:07:07.057Z,427.00
2023-04-18T07:08:07.069Z,426.00
2023-04-18T07:09:07.066Z,423.00
2023-04-18T07:10:07.098Z,419.00
2023-04-18T07:11:07.026Z,416.00
2023-04-18T07:12:07.043Z,415.00
2023-04-18T07:13:07.053Z,416.00
2023-04-18T07:14:07.045Z,416.00
2023-04-18T07:15:07.011Z,418.00
2023-04-18T07:16:07.345Z,419.00
2023-04-18T07:17:07.128Z,418.00
2023-04-18T07:18:07.058Z,418.00
2023-04-18T07:19:06.954Z,417.00
2023-04-18T07:20:06.989Z,414.00
2023-04-18T07:21:06.991Z,416.00
2023-04-18T07:22:06.956Z,416.00
2023-04-18T07:23:06.926Z,416.00
2023-04-18T07:24:06.978Z,415.00
2023-04-18T07:25:06.970Z,415.00
2023-04-18T07:26:06.938Z,416.00
2023-04-18T07:27:06.919Z,416.00
2023-04-18T07:28:06.894Z,418.00
2023-04-18T07:29:06.998Z,419.00
2023-04-18T07:30:07.062Z,424.00
2023-04-18T07:31:06.953Z,427.00
2023-04-18T07:32:08.453Z,526.00
2023-04-18T07:33:06.868Z,574.00
2023-04-18T07:34:06.881Z,578.00
2023-04-18T07:35:06.837Z,600.00
2023-04-18T07:36:06.860Z,629.00
2023-04-18T07:37:06.867Z,638.00
2023-04-18T07:38:06.860Z,662.00
2023-04-18T07:39:06.806Z,675.00
2023-04-18T07:40:06.833Z,681.00
2023-04-18T07:41:06.900Z,684.00
2023-04-18T07:42:06.821Z,689.00
2023-04-18T07:43:06.793Z,696.00
2023-04-18T07:44:06.816Z,703.00
2023-04-18T07:45:06.811Z,714.00
2023-04-18T07:46:06.840Z,719.00
2023-04-18T07:47:06.846Z,725.00
2023-04-18T07:48:06.824Z,732.00
2023-04-18T07:49:06.773Z,736.00
2023-04-18T07:50:07.085Z,739.00
2023-04-18T07:51:06.901Z,743.00
2023-04-18T07:52:06.927Z,746.00
2023-04-18T07:53:07.019Z,750.00
2023-04-18T07:54:07.032Z,748.00
2023-04-18T07:55:07.077Z,750.00
2023-04-18T07:56:07.214Z,755.00
2023-04-18T07:57:07.165Z,764.00
2023-04-18T07:58:07.229Z,769.00
2023-04-18T07:59:07.261Z,776.00
2023-04-18T08:00:07.318Z,780.00
2023-04-18T08:01:07.314Z,780.00
2023-04-18T08:02:07.416Z,782.00
2023-04-18T08:03:07.632Z,787.00
2023-04-18T08:04:07.863Z,790.00
2023-04-18T08:05:07.543Z,798.00
2023-04-18T08:06:07.503Z,796.00
2023-04-18T08:07:07.536Z,800.00
2023-04-18T08:08:07.603Z,801.00
2023-04-18T08:09:07.576Z,804.00
2023-04-18T08:10:07.613Z,807.00
2023-04-18T08:11:07.653Z,807.00
2023-04-18T08:12:07.711Z,809.00
2023-04-18T08:13:07.732Z,812.00
2023-04-18T08:14:07.766Z,815.00
2023-04-18T08:15:07.732Z,813.00
2023-04-18T08:16:07.865Z,810.00
2023-04-18T08:17:07.807Z,811.00
2023-04-18T08:18:07.799Z,814.00
2023-04-18T08:19:07.798Z,823.00
2023-04-18T08:20:07.832Z,826.00
2023-04-18T08:21:07.816Z,827.00
2023-04-18T08:22:07.821Z,830.00
2023-04-18T08:23:10.278Z,834.00
2023-04-18T08:24:07.851Z,836.00
2023-04-18T08:25:08.106Z,827.00
2023-04-18T08:26:07.854Z,814.00
2023-04-18T08:27:07.811Z,782.00
2023-04-18T08:28:07.810Z,756.00
2023-04-18T08:29:07.808Z,742.00
2023-04-18T08:30:07.791Z,710.00
2023-04-18T08:31:07.824Z,691.00
2023-04-18T08:32:07.906Z,674.00
2023-04-18T08:33:07.882Z,661.00
2023-04-18T08:34:07.741Z,631.00
2023-04-18T08:35:07.760Z,603.00
2023-04-18T08:36:07.782Z,590.00
2023-04-18T08:37:07.760Z,582.00
2023-04-18T08:38:08.363Z,576.00
2023-04-18T08:39:07.739Z,570.00
2023-04-18T08:40:07.749Z,560.00
2023-04-18T08:41:07.688Z,551.00
2023-04-18T08:42:07.702Z,546.00
2023-04-18T08:43:07.714Z,546.00
2023-04-18T08:44:07.682Z,628.00
2023-04-18T08:45:07.716Z,634.00
2023-04-18T08:46:07.776Z,628.00
2023-04-18T08:47:07.649Z,623.00
2023-04-18T08:48:07.817Z,608.00
2023-04-18T08:49:07.896Z,601.00
2023-04-18T08:50:07.793Z,599.00
2023-04-18T08:51:07.862Z,594.00
2023-04-18T08:52:07.891Z,586.00
2023-04-18T08:53:07.948Z,580.00
2023-04-18T08:54:07.985Z,577.00
2023-04-18T08:55:08.042Z,577.00
2023-04-18T08:56:08.090Z,574.00
2023-04-18T08:57:08.121Z,571.00
2023-04-18T08:58:08.157Z,569.00
2023-04-18T08:59:08.251Z,565.00
2023-04-18T09:00:08.309Z,563.00
2023-04-18T09:01:08.329Z,563.00
2023-04-18T09:02:08.389Z,563.00
2023-04-18T09:03:08.523Z,559.00
2023-04-18T09:04:08.462Z,555.00
2023-04-18T09:05:08.467Z,553.00
2023-04-18T09:06:08.533Z,550.00
2023-04-18T09:07:08.552Z,548.00
2023-04-18T09:08:08.608Z,544.00
2023-04-18T09:09:08.653Z,542.00
2023-04-18T09:10:08.708Z,538.00
2023-04-18T09:11:08.718Z,538.00
2023-04-18T09:12:08.778Z,539.00
2023-04-18T09:13:08.746Z,539.00
2023-04-18T09:14:08.834Z,537.00
2023-04-18T09:15:08.894Z,535.00
2023-04-18T09:16:08.952Z,535.00
2023-04-18T09:17:08.916Z,534.00
2023-04-18T09:18:09.019Z,535.00
2023-04-18T09:19:09.009Z,537.00
2023-04-18T09:20:09.031Z,539.00
2023-04-18T09:21:09.046Z,537.00
2023-04-18T09:22:09.101Z,539.00
2023-04-18T09:23:09.101Z,539.00
2023-04-18T09:24:09.108Z,538.00
2023-04-18T09:25:09.103Z,540.00
2023-04-18T09:26:09.155Z,544.00
2023-04-18T09:27:09.601Z,550.00
2023-04-18T09:28:09.197Z,553.00
2023-04-18T09:29:09.260Z,552.00
2023-04-18T09:30:09.289Z,552.00
2023-04-18T09:31:09.290Z,558.00
2023-04-18T09:32:09.642Z,617.00
2023-04-18T09:33:09.338Z,662.00
2023-04-18T09:34:09.340Z,664.00
2023-04-18T09:35:09.344Z,676.00
2023-04-18T09:36:09.611Z,687.00
2023-04-18T09:37:09.461Z,682.00
2023-04-18T09:38:09.445Z,694.00
2023-04-18T09:39:09.477Z,702.00
2023-04-18T09:40:09.538Z,708.00
2023-04-18T09:41:09.710Z,712.00
2023-04-18T09:42:10.118Z,715.00
2023-04-18T09:43:09.575Z,716.00
2023-04-18T09:44:11.657Z,711.00
2023-04-18T09:45:09.566Z,708.00
2023-04-18T09:46:09.659Z,711.00
2023-04-18T09:47:09.698Z,706.00
2023-04-18T09:48:09.661Z,703.00
2023-04-18T09:49:11.003Z,699.00
2023-04-18T09:50:09.545Z,697.00
2023-04-18T09:51:09.574Z,691.00
2023-04-18T09:52:09.583Z,688.00
2023-04-18T09:53:09.525Z,687.00
2023-04-18T09:54:09.524Z,684.00
2023-04-18T09:55:09.621Z,676.00
2023-04-18T09:56:09.493Z,673.00
2023-04-18T09:57:09.453Z,669.00
2023-04-18T09:58:09.495Z,668.00
2023-04-18T09:59:09.489Z,665.00
2023-04-18T10:00:09.450Z,658.00
2023-04-18T10:01:09.512Z,655.00
2023-04-18T10:02:09.506Z,653.00
2023-04-18T10:03:09.559Z,647.00
2023-04-18T10:04:09.475Z,643.00
2023-04-18T10:05:09.473Z,640.00
2023-04-18T10:06:09.411Z,642.00
2023-04-18T10:07:09.421Z,639.00
2023-04-18T10:08:09.401Z,639.00
2023-04-18T10:09:09.430Z,637.00
2023-04-18T10:10:09.448Z,640.00
2023-04-18T10:11:09.380Z,635.00
2023-04-18T10:12:09.396Z,631.00
2023-04-18T10:13:09.392Z,628.00
2023-04-18T10:14:09.398Z,624.00
2023-04-18T10:15:09.358Z,619.00
2023-04-18T10:16:09.643Z,621.00
2023-04-18T10:17:09.353Z,621.00
2023-04-18T10:18:09.339Z,623.00
2023-04-18T10:19:09.335Z,623.00
2023-04-18T10:20:09.347Z,620.00
2023-04-18T10:21:09.346Z,621.00
2023-04-18T10:22:09.671Z,620.00
2023-04-18T10:23:09.361Z,622.00
2023-04-18T10:24:09.372Z,623.00
2023-04-18T10:25:09.377Z,630.00
2023-04-18T10:26:09.378Z,625.00
2023-04-18T10:27:09.639Z,592.00
2023-04-18T10:28:09.454Z,588.00
2023-04-18T10:29:09.491Z,590.00
2023-04-18T10:30:09.520Z,575.00
2023-04-18T10:31:09.589Z,536.00
2023-04-18T10:32:09.622Z,549.00
2023-04-18T10:33:18.380Z,615.00
2023-04-18T10:34:10.628Z,620.00
2023-04-18T10:35:09.643Z,624.00
2023-04-18T10:36:09.649Z,636.00
2023-04-18T10:37:09.619Z,639.00
2023-04-18T10:38:09.599Z,640.00
2023-04-18T10:39:09.578Z,640.00
2023-04-18T10:40:09.594Z,637.00
2023-04-18T10:41:09.601Z,637.00
2023-04-18T10:42:09.604Z,639.00
2023-04-18T10:43:09.638Z,638.00
2023-04-18T10:44:09.601Z,634.00
2023-04-18T10:45:09.625Z,634.00
2023-04-18T10:46:20.122Z,634.00
2023-04-18T10:47:10.565Z,638.00
2023-04-18T10:48:09.659Z,642.00
2023-04-18T10:49:09.535Z,646.00
2023-04-18T10:50:09.549Z,649.00
2023-04-18T10:51:09.513Z,649.00
2023-04-18T10:52:10.139Z,650.00
2023-04-18T10:53:09.665Z,651.00
2023-04-18T10:54:09.508Z,651.00
2023-04-18T10:55:09.439Z,653.00
2023-04-18T10:56:09.496Z,655.00
2023-04-18T10:57:09.485Z,658.00
2023-04-18T10:58:09.453Z,661.00
2023-04-18T10:59:09.461Z,663.00
2023-04-18T11:00:09.471Z,663.00
2023-04-18T11:01:09.469Z,665.00
2023-04-18T11:02:09.517Z,666.00
2023-04-18T11:03:09.555Z,668.00
2023-04-18T11:04:09.506Z,672.00
2023-04-18T11:05:09.443Z,674.00
2023-04-18T11:06:09.401Z,675.00
2023-04-18T11:07:09.397Z,678.00
2023-04-18T11:08:09.409Z,678.00
2023-04-18T11:09:09.378Z,678.00
2023-04-18T11:10:09.422Z,682.00
2023-04-18T11:11:09.391Z,688.00
2023-04-18T11:12:09.372Z,690.00
2023-04-18T11:13:09.333Z,698.00
2023-04-18T11:14:09.394Z,707.00
2023-04-18T11:15:09.642Z,713.00
2023-04-18T11:16:09.375Z,722.00
2023-04-18T11:17:09.320Z,719.00
2023-04-18T11:18:09.388Z,717.00
2023-04-18T11:19:09.284Z,718.00
2023-04-18T11:20:09.355Z,720.00
2023-04-18T11:21:09.301Z,722.00
2023-04-18T11:22:09.296Z,710.00
2023-04-18T11:23:09.290Z,686.00
2023-04-18T11:24:09.280Z,665.00
2023-04-18T11:25:09.671Z,650.00
2023-04-18T11:26:09.241Z,639.00
2023-04-18T11:27:09.247Z,627.00
2023-04-18T11:28:09.239Z,615.00
2023-04-18T11:29:09.251Z,593.00
2023-04-18T11:30:09.263Z,578.00
2023-04-18T11:31:09.226Z,568.00
2023-04-18T11:32:09.257Z,559.00
2023-04-18T11:33:09.341Z,548.00
2023-04-18T11:34:09.236Z,539.00
2023-04-18T11:35:09.283Z,531.00
2023-04-18T11:36:09.275Z,525.00
2023-04-18T11:37:09.291Z,517.00
2023-04-18T11:38:09.288Z,511.00
2023-04-18T11:39:09.300Z,506.00
2023-04-18T11:40:09.342Z,501.00
2023-04-18T11:41:09.342Z,493.00
2023-04-18T11:42:09.428Z,490.00
2023-04-18T11:43:09.428Z,483.00
2023-04-18T11:44:09.436Z,479.00
2023-04-18T11:45:09.481Z,472.00
2023-04-18T11:46:09.535Z,466.00
2023-04-18T11:47:09.517Z,461.00
2023-04-18T11:48:09.628Z,455.00
2023-04-18T11:49:09.582Z,450.00
2023-04-18T11:50:09.630Z,445.00
2023-04-18T11:51:09.613Z,441.00
2023-04-18T11:52:09.711Z,437.00
2023-04-18T11:53:09.732Z,433.00
2023-04-18T11:54:09.723Z,429.00
2023-04-18T11:55:09.727Z,424.00
2023-04-18T11:56:09.753Z,421.00
2023-04-18T11:57:09.787Z,420.00
2023-04-18T11:58:09.843Z,419.00
2023-04-18T11:59:09.858Z,416.00
2023-04-18T12:00:09.876Z,415.00
2023-04-18T12:01:09.924Z,416.00
2023-04-18T12:03:12.595Z,416.00
2023-04-18T12:04:10.082Z,416.00
2023-04-18T12:05:10.332Z,414.00
2023-04-18T12:06:09.967Z,412.00
2023-04-18T12:07:09.915Z,410.00
2023-04-18T12:08:09.916Z,410.00
2023-04-18T12:09:09.902Z,412.00
2023-04-18T12:10:09.899Z,413.00
2023-04-18T12:11:09.925Z,412.00
2023-04-18T12:12:09.904Z,412.00
2023-04-18T12:13:09.870Z,412.00
2023-04-18T12:14:09.929Z,411.00
2023-04-18T12:15:09.852Z,412.00
2023-04-18T12:16:09.984Z,412.00
2023-04-18T12:17:09.831Z,411.00
2023-04-18T12:18:09.828Z,411.00
2023-04-18T12:19:09.838Z,411.00
2023-04-18T12:20:09.912Z,413.00
2023-04-18T12:21:09.807Z,415.00
2023-04-18T12:22:09.798Z,415.00
2023-04-18T12:23:09.802Z,415.00
2023-04-18T12:24:09.760Z,414.00
2023-04-18T12:25:09.784Z,411.00
2023-04-18T12:26:09.753Z,411.00
2023-04-18T12:27:09.804Z,409.00
2023-04-18T12:28:09.760Z,406.00
2023-04-18T12:29:09.785Z,405.00